createdAt,value
2019-05-02T00:01:37.790Z,98.10
2019-05-02T00:04:04.576Z,99.40
2019-05-02T00:06:31.653Z,99.90
2019-05-02T00:08:58.355Z,99.90
2019-05-02T00:11:27.244Z,99.90
2019-05-02T00:13:54.580Z,99.90
2019-05-02T00:16:21.276Z,99.90
2019-05-02T00:18:48.916Z,99.90
2019-05-02T00:21:16.192Z,99.90
2019-05-02T00:23:42.840Z,99.90
2019-05-02T00:26:09.756Z,99.90
2019-05-02T00:28:38.679Z,99.90
2019-05-02T00:31:07.464Z,99.90
2019-05-02T00:33:38.101Z,99.90
2019-05-02T00:36:04.889Z,99.90
2019-05-02T00:38:33.434Z,99.90
2019-05-02T00:41:03.707Z,99.90
2019-05-02T00:43:34.620Z,99.90
2019-05-02T00:45:59.791Z,99.90
2019-05-02T00:48:54.254Z,99.90
2019-05-02T00:51:22.010Z,99.90
2019-05-02T00:53:50.292Z,99.90
2019-05-02T00:56:16.951Z,99.90
2019-05-02T00:58:43.673Z,99.90
2019-05-02T01:01:29.696Z,99.50
2019-05-02T01:04:00.260Z,99.70
2019-05-02T01:06:27.058Z,98.40
2019-05-02T01:08:53.675Z,99.10
2019-05-02T01:11:20.287Z,99.50
2019-05-02T01:13:50.340Z,99.80
2019-05-02T01:16:19.174Z,99.90
2019-05-02T01:18:44.135Z,99.60
2019-05-02T01:21:10.738Z,99.40
2019-05-02T01:23:37.772Z,99.90
2019-05-02T01:26:04.732Z,99.40
2019-05-02T01:28:53.815Z,99.20
2019-05-02T01:31:24.437Z,99.10
2019-05-02T01:34:01.235Z,98.90
2019-05-02T01:36:32.639Z,99.10
2019-05-02T01:39:02.874Z,99.30
2019-05-02T01:41:29.182Z,99.50
2019-05-02T01:44:00.160Z,99.50
2019-05-02T01:46:24.788Z,99.70
2019-05-02T01:48:51.402Z,99.40
2019-05-02T01:51:18.239Z,99.80
2019-05-02T01:53:44.841Z,99.90
2019-05-02T01:56:11.685Z,99.40
2019-05-02T01:58:38.331Z,99.10
2019-05-02T02:01:05.183Z,99.90
2019-05-02T02:03:31.932Z,99.90
2019-05-02T02:06:02.833Z,99.20
2019-05-02T02:08:32.326Z,98.90
2019-05-02T02:10:58.206Z,97.90
2019-05-02T02:13:24.745Z,98.20
2019-05-02T02:15:51.417Z,97.50
2019-05-02T02:18:22.373Z,98.10
2019-05-02T02:21:10.160Z,98.40
2019-05-02T02:23:54.801Z,98.60
2019-05-02T02:26:21.535Z,98.90
2019-05-02T02:28:48.163Z,99.10
2019-05-02T02:31:18.213Z,99.20
2019-05-02T02:33:47.943Z,99.00
2019-05-02T02:36:13.399Z,99.10
2019-05-02T02:38:40.049Z,99.30
2019-05-02T02:41:13.148Z,98.90
2019-05-02T02:43:35.568Z,99.20
2019-05-02T02:46:15.572Z,97.60
2019-05-02T02:48:42.788Z,95.70
2019-05-02T02:51:09.602Z,95.60
2019-05-02T02:53:36.329Z,93.40
2019-05-02T02:56:05.130Z,93.30
2019-05-02T02:58:44.162Z,93.50
2019-05-02T03:01:00.545Z,93.60
2019-05-02T03:03:28.575Z,93.80
2019-05-02T03:05:58.704Z,94.20
2019-05-02T03:08:25.354Z,94.50
2019-05-02T03:10:52.771Z,93.00
2019-05-02T03:13:51.440Z,92.40
2019-05-02T03:16:09.519Z,93.10
2019-05-02T03:18:40.740Z,93.30
2019-05-02T03:21:04.751Z,93.00
2019-05-02T03:23:31.702Z,92.50
2019-05-02T03:25:58.526Z,92.40
2019-05-02T03:28:25.142Z,90.90
2019-05-02T03:30:52.087Z,90.70
2019-05-02T03:33:18.772Z,89.90
2019-05-02T03:35:49.048Z,89.80
2019-05-02T03:38:15.027Z,91.20
2019-05-02T03:40:41.638Z,90.10
2019-05-02T03:43:08.369Z,89.70
2019-05-02T03:45:40.187Z,89.50
2019-05-02T03:48:04.386Z,89.60
2019-05-02T03:50:32.580Z,88.70
2019-05-02T03:53:00.000Z,89.00
2019-05-02T03:55:31.442Z,88.00
2019-05-02T03:57:55.998Z,87.80
2019-05-02T04:00:24.424Z,88.00
2019-05-02T04:02:59.193Z,88.00
2019-05-02T04:05:20.081Z,88.10
2019-05-02T04:07:47.021Z,88.40
2019-05-02T04:10:21.463Z,87.90
2019-05-02T04:12:53.217Z,87.80
2019-05-02T04:15:17.645Z,87.10
2019-05-02T04:17:44.260Z,86.80
2019-05-02T04:20:12.753Z,87.30
2019-05-02T04:22:42.699Z,86.80
2019-05-02T04:25:08.836Z,86.60
2019-05-02T04:27:35.953Z,86.50
2019-05-02T04:30:11.610Z,85.80
2019-05-02T04:32:32.129Z,86.00
2019-05-02T04:34:58.770Z,85.90
2019-05-02T04:37:25.450Z,85.20
2019-05-02T04:39:53.769Z,84.60
2019-05-02T04:42:23.246Z,84.50
2019-05-02T04:45:11.649Z,83.90
2019-05-02T04:47:21.919Z,82.80
2019-05-02T04:49:49.134Z,82.60
2019-05-02T04:52:20.903Z,82.20
2019-05-02T04:54:48.562Z,82.10
2019-05-02T04:57:14.676Z,82.40
2019-05-02T04:59:41.390Z,82.80
2019-05-02T05:02:09.113Z,83.30
2019-05-02T05:04:42.374Z,82.80
2019-05-02T05:07:05.024Z,81.80
2019-05-02T05:09:31.657Z,82.40
2019-05-02T05:12:01.317Z,82.20
2019-05-02T05:14:31.499Z,82.40
2019-05-02T05:16:56.080Z,81.90
2019-05-02T05:19:28.744Z,81.00
2019-05-02T05:21:56.719Z,80.70
2019-05-02T05:24:44.469Z,80.20
2019-05-02T05:27:13.280Z,80.70
2019-05-02T05:29:39.696Z,80.00
2019-05-02T05:32:09.910Z,79.90
2019-05-02T05:34:34.840Z,80.30
2019-05-02T05:37:03.637Z,80.70
2019-05-02T05:39:30.243Z,81.00
2019-05-02T05:41:57.840Z,81.90
2019-05-02T05:44:30.619Z,82.40
2019-05-02T05:46:53.291Z,82.50
2019-05-02T05:49:21.773Z,82.00
2019-05-02T05:51:49.514Z,82.30
2019-05-02T05:54:17.823Z,82.10
2019-05-02T05:56:48.164Z,81.60
2019-05-02T05:59:17.374Z,81.40
2019-05-02T06:01:44.396Z,81.00
2019-05-02T06:04:13.859Z,80.20
2019-05-02T06:06:39.565Z,81.30
2019-05-02T06:09:07.421Z,80.60
2019-05-02T06:11:34.742Z,80.80
2019-05-02T06:14:01.435Z,80.40
2019-05-02T06:16:28.106Z,80.50
2019-05-02T06:18:54.810Z,79.80
2019-05-02T06:21:21.607Z,81.10
2019-05-02T06:23:49.882Z,80.40
2019-05-02T06:26:16.724Z,79.90
2019-05-02T06:28:43.373Z,79.70
2019-05-02T06:31:09.971Z,79.60
2019-05-02T06:33:36.605Z,79.50
2019-05-02T06:36:03.559Z,79.30
2019-05-02T06:38:30.180Z,79.10
2019-05-02T06:40:57.196Z,78.40
2019-05-02T06:43:23.829Z,78.90
2019-05-02T06:45:50.463Z,78.60
2019-05-02T06:48:17.646Z,78.30
2019-05-02T06:50:45.616Z,77.40
2019-05-02T06:53:12.605Z,77.00
2019-05-02T06:55:39.468Z,76.00
2019-05-02T06:58:08.190Z,76.20
2019-05-02T07:00:38.460Z,76.30
2019-05-02T07:03:05.017Z,76.40
2019-05-02T07:05:32.337Z,76.70
2019-05-02T07:07:59.365Z,76.50
2019-05-02T07:10:26.706Z,75.30
2019-05-02T07:13:09.450Z,76.40
2019-05-02T07:15:38.507Z,76.50
2019-05-02T07:18:12.141Z,76.40
2019-05-02T07:20:40.666Z,76.80
2019-05-02T07:23:10.548Z,76.50
2019-05-02T07:25:39.149Z,77.40
2019-05-02T07:28:09.528Z,77.20
2019-05-02T07:30:35.130Z,77.90
2019-05-02T07:33:02.968Z,79.00
2019-05-02T07:35:29.659Z,79.10
2019-05-02T07:37:56.283Z,78.60
2019-05-02T07:40:23.024Z,79.50
2019-05-02T07:42:49.693Z,79.20
2019-05-02T07:45:16.683Z,79.40
2019-05-02T07:47:43.469Z,79.80
2019-05-02T07:50:11.963Z,80.20
2019-05-02T07:52:41.046Z,79.50
2019-05-02T07:55:10.053Z,79.20
2019-05-02T07:57:36.512Z,80.10
2019-05-02T08:00:04.536Z,80.70
2019-05-02T08:02:31.245Z,81.50
2019-05-02T08:04:57.827Z,82.10
2019-05-02T08:07:27.186Z,82.30
2019-05-02T08:09:53.047Z,82.10
2019-05-02T08:12:19.787Z,82.40
2019-05-02T08:14:46.650Z,82.50
2019-05-02T08:17:17.073Z,81.90
2019-05-02T08:19:43.185Z,81.70
2019-05-02T08:22:13.501Z,82.00
2019-05-02T08:24:39.345Z,81.60
2019-05-02T08:27:15.548Z,80.90
2019-05-02T08:29:42.160Z,80.40
2019-05-02T08:32:08.845Z,80.20
2019-05-02T08:34:35.495Z,81.80
2019-05-02T08:37:03.129Z,80.90
2019-05-02T08:39:33.788Z,80.70
2019-05-02T08:41:59.740Z,78.80
2019-05-02T08:44:26.469Z,78.80
2019-05-02T08:46:53.294Z,78.50
2019-05-02T08:49:20.540Z,78.90
2019-05-02T08:51:47.139Z,78.70
2019-05-02T08:54:13.745Z,78.90
2019-05-02T08:56:40.583Z,77.20
2019-05-02T08:59:07.209Z,76.70
2019-05-02T09:01:35.199Z,77.10
2019-05-02T09:04:02.808Z,77.20
2019-05-02T09:06:29.563Z,76.80
2019-05-02T09:08:56.231Z,76.50
2019-05-02T09:11:22.984Z,75.70
2019-05-02T09:13:49.597Z,73.50
2019-05-02T09:16:16.184Z,73.40
2019-05-02T09:18:50.728Z,73.90
2019-05-02T09:21:12.548Z,72.70
2019-05-02T09:23:41.303Z,72.90
2019-05-02T09:26:08.373Z,72.20
2019-05-02T09:28:35.041Z,70.70
2019-05-02T09:31:05.519Z,71.30
2019-05-02T09:33:32.190Z,71.40
2019-05-02T09:35:58.997Z,70.80
2019-05-02T09:38:25.620Z,68.30
2019-05-02T09:40:56.089Z,68.70
2019-05-02T09:43:22.733Z,67.60
2019-05-02T09:45:49.403Z,66.30
2019-05-02T09:48:17.239Z,68.50
2019-05-02T09:50:44.560Z,66.30
2019-05-02T09:53:13.210Z,62.70
2019-05-02T09:55:42.338Z,64.70
2019-05-02T09:58:10.493Z,66.50
2019-05-02T10:00:45.729Z,68.20
2019-05-02T10:03:13.440Z,68.50
2019-05-02T10:05:40.252Z,69.60
2019-05-02T10:08:10.693Z,68.40
2019-05-02T10:10:37.137Z,68.80
2019-05-02T10:13:05.728Z,67.40
2019-05-02T10:15:32.932Z,67.80
2019-05-02T10:18:08.781Z,66.30
2019-05-02T10:20:31.852Z,66.90
2019-05-02T10:22:56.720Z,65.10
2019-05-02T10:25:23.366Z,66.20
2019-05-02T10:27:51.990Z,67.20
2019-05-02T10:30:21.715Z,67.60
2019-05-02T10:32:52.905Z,67.90
2019-05-02T10:35:18.943Z,72.20
2019-05-02T10:37:45.601Z,73.60
2019-05-02T10:40:16.039Z,74.60
2019-05-02T10:42:41.915Z,74.50
2019-05-02T10:45:13.117Z,73.40
2019-05-02T10:47:39.299Z,73.50
2019-05-02T10:50:13.619Z,73.00
2019-05-02T10:52:42.412Z,72.30
2019-05-02T10:55:10.076Z,72.90
2019-05-02T10:57:36.758Z,72.50
2019-05-02T11:00:04.703Z,72.70
2019-05-02T11:03:03.392Z,71.30
2019-05-02T11:05:31.585Z,71.30
2019-05-02T11:08:04.710Z,71.30
2019-05-02T11:10:26.909Z,71.00
2019-05-02T11:13:01.894Z,71.40
2019-05-02T11:15:46.298Z,71.40
2019-05-02T11:18:13.643Z,71.90
2019-05-02T11:20:42.054Z,72.10
2019-05-02T11:23:08.828Z,71.40
2019-05-02T11:25:35.475Z,71.20
2019-05-02T11:28:06.991Z,70.00
2019-05-02T11:30:31.999Z,70.40
2019-05-02T11:32:58.827Z,70.20
2019-05-02T11:35:25.466Z,70.00
2019-05-02T11:37:52.068Z,69.70
2019-05-02T11:40:18.746Z,69.60
2019-05-02T11:42:47.148Z,69.50
2019-05-02T11:45:13.933Z,70.40
2019-05-02T11:47:42.175Z,70.80
2019-05-02T11:50:11.413Z,70.80
2019-05-02T11:52:38.325Z,70.40
2019-05-02T11:55:05.229Z,70.90
2019-05-02T11:57:33.203Z,68.90
2019-05-02T12:00:05.084Z,67.00
2019-05-02T12:02:58.382Z,65.80
2019-05-02T12:05:31.733Z,65.00
2019-05-02T12:08:00.821Z,64.40
2019-05-02T12:10:27.926Z,65.60
2019-05-02T12:12:55.205Z,65.20
2019-05-02T12:15:21.820Z,64.90
2019-05-02T12:17:48.451Z,63.50
2019-05-02T12:20:15.336Z,62.80
2019-05-02T12:22:42.863Z,64.10
2019-05-02T12:25:09.710Z,65.20
2019-05-02T12:27:36.331Z,64.30
2019-05-02T12:30:03.536Z,64.70
2019-05-02T12:32:30.235Z,65.80
2019-05-02T12:34:56.881Z,65.70
2019-05-02T12:37:23.545Z,65.00
2019-05-02T12:39:51.719Z,65.50
2019-05-02T12:42:18.853Z,65.60
2019-05-02T12:44:45.675Z,65.70
2019-05-02T12:47:12.451Z,66.50
2019-05-02T12:49:39.210Z,65.70
2019-05-02T12:52:05.996Z,65.50
2019-05-02T12:54:32.680Z,65.60
2019-05-02T12:56:59.569Z,65.60
2019-05-02T12:59:26.689Z,66.60
2019-05-02T13:01:53.641Z,66.00
2019-05-02T13:04:20.382Z,66.90
2019-05-02T13:06:47.016Z,66.60
2019-05-02T13:09:13.697Z,66.50
2019-05-02T13:11:52.155Z,65.50
2019-05-02T13:14:22.807Z,65.30
2019-05-02T13:16:53.615Z,65.10
2019-05-02T13:19:18.885Z,66.40
2019-05-02T13:21:58.234Z,67.80
2019-05-02T13:24:37.387Z,67.80
2019-05-02T13:27:06.684Z,67.10
2019-05-02T13:29:33.600Z,66.80
2019-05-02T13:32:17.530Z,65.90
2019-05-02T13:34:55.505Z,66.50
2019-05-02T13:37:19.173Z,67.70
2019-05-02T13:40:02.688Z,68.00
2019-05-02T13:42:29.625Z,69.10
2019-05-02T13:45:16.176Z,70.10
2019-05-02T13:47:42.807Z,69.60
2019-05-02T13:50:09.814Z,69.60
2019-05-02T13:52:36.528Z,69.50
2019-05-02T13:55:05.276Z,67.20
2019-05-02T13:57:35.051Z,65.60
2019-05-02T14:00:02.311Z,64.50
2019-05-02T14:02:35.241Z,62.20
2019-05-02T14:05:02.457Z,62.50
2019-05-02T14:07:29.435Z,63.10
2019-05-02T14:10:00.353Z,63.50
2019-05-02T14:12:48.708Z,62.50
2019-05-02T14:15:17.309Z,62.80
2019-05-02T14:17:44.340Z,62.30
2019-05-02T14:20:13.721Z,62.50
2019-05-02T14:22:40.190Z,62.40
2019-05-02T14:25:07.416Z,63.00
2019-05-02T14:27:34.105Z,63.40
2019-05-02T14:30:02.435Z,63.70
2019-05-02T14:32:29.236Z,64.80
2019-05-02T14:35:09.394Z,66.40
2019-05-02T14:37:36.577Z,66.00
2019-05-02T14:40:11.660Z,65.50
2019-05-02T14:42:38.517Z,66.20
2019-05-02T14:45:19.933Z,67.10
2019-05-02T14:47:34.547Z,66.90
2019-05-02T14:50:04.995Z,65.00
2019-05-02T14:52:30.005Z,62.80
2019-05-02T14:54:57.039Z,61.60
2019-05-02T14:57:27.157Z,61.70
2019-05-02T14:59:59.119Z,61.80
2019-05-02T15:02:47.243Z,61.80
2019-05-02T15:05:09.018Z,61.60
2019-05-02T15:07:38.499Z,61.80
2019-05-02T15:10:06.724Z,62.70
2019-05-02T15:12:33.621Z,62.80
2019-05-02T15:15:02.350Z,63.80
2019-05-02T15:17:33.671Z,65.20
2019-05-02T15:19:58.414Z,66.40
2019-05-02T15:22:27.615Z,67.10
2019-05-02T15:24:56.401Z,68.20
2019-05-02T15:27:22.376Z,67.80
2019-05-02T15:29:53.953Z,67.10
2019-05-02T15:32:25.643Z,67.40
2019-05-02T15:35:12.935Z,67.20
2019-05-02T15:37:41.721Z,64.30
2019-05-02T15:40:43.070Z,62.00
2019-05-02T15:42:47.987Z,62.30
2019-05-02T15:45:14.836Z,62.70
2019-05-02T15:47:45.153Z,63.60
2019-05-02T15:50:14.707Z,65.10
2019-05-02T15:52:42.023Z,66.50
2019-05-02T15:55:09.104Z,66.70
2019-05-02T15:57:42.925Z,67.10
2019-05-02T16:00:05.700Z,68.10
2019-05-02T16:02:32.435Z,69.20
2019-05-02T16:05:02.353Z,68.20
2019-05-02T16:07:27.640Z,68.10
2019-05-02T16:09:57.246Z,68.20
2019-05-02T16:12:27.182Z,68.30
2019-05-02T16:14:52.792Z,69.00
2019-05-02T16:17:25.633Z,69.00
2019-05-02T16:19:58.737Z,69.30
2019-05-02T16:22:24.380Z,69.40
2019-05-02T16:24:53.359Z,70.20
2019-05-02T16:27:29.825Z,70.40
2019-05-02T16:29:58.342Z,70.40
2019-05-02T16:32:35.747Z,72.30
2019-05-02T16:35:07.159Z,72.30
2019-05-02T16:37:32.400Z,72.60
2019-05-02T16:39:59.129Z,73.80
2019-05-02T16:42:26.070Z,73.50
2019-05-02T16:44:54.760Z,73.60
2019-05-02T16:47:21.961Z,73.60
2019-05-02T16:49:53.146Z,73.30
2019-05-02T16:52:17.783Z,73.10
2019-05-02T16:54:45.009Z,72.70
2019-05-02T16:57:12.562Z,72.80
2019-05-02T16:59:39.270Z,72.80
2019-05-02T17:02:07.976Z,72.50
2019-05-02T17:04:35.070Z,72.60
2019-05-02T17:07:05.889Z,73.00
2019-05-02T17:09:42.400Z,73.50
2019-05-02T17:12:11.909Z,73.50
2019-05-02T17:14:37.872Z,73.50
2019-05-02T17:17:04.491Z,73.80
2019-05-02T17:19:34.771Z,74.00
2019-05-02T17:21:59.895Z,73.80
2019-05-02T17:24:26.877Z,74.10
2019-05-02T17:26:53.722Z,74.20
2019-05-02T17:29:21.354Z,72.60
2019-05-02T17:31:50.054Z,71.60
2019-05-02T17:34:23.021Z,73.30
2019-05-02T17:36:47.007Z,74.60
2019-05-02T17:39:13.699Z,77.10
2019-05-02T17:41:44.012Z,79.20
2019-05-02T17:44:12.931Z,81.50
2019-05-02T17:46:39.269Z,84.30
2019-05-02T17:49:06.404Z,86.10
2019-05-02T17:52:04.467Z,86.60
2019-05-02T17:54:26.032Z,87.10
2019-05-02T17:56:52.255Z,87.80
2019-05-02T17:59:19.421Z,92.30
2019-05-02T18:01:46.151Z,93.10
2019-05-02T18:04:16.371Z,94.30
2019-05-02T18:06:41.761Z,95.30
2019-05-02T18:09:08.641Z,95.70
2019-05-02T18:11:37.628Z,95.10
2019-05-02T18:14:10.139Z,94.10
2019-05-02T18:16:32.655Z,94.90
2019-05-02T18:18:59.305Z,95.60
2019-05-02T18:21:28.704Z,94.70
2019-05-02T18:23:57.182Z,94.40
2019-05-02T18:26:23.324Z,95.20
2019-05-02T18:28:52.524Z,98.30
2019-05-02T18:31:21.430Z,99.90
2019-05-02T18:33:48.275Z,99.90
2019-05-02T18:36:17.496Z,99.90
2019-05-02T18:38:43.437Z,99.90
2019-05-02T18:41:11.893Z,99.90
2019-05-02T18:43:41.486Z,99.90
2019-05-02T18:46:07.746Z,99.90
2019-05-02T18:48:36.593Z,99.90
2019-05-02T18:51:03.093Z,99.90
2019-05-02T18:53:29.778Z,99.90
2019-05-02T18:56:01.011Z,99.40
2019-05-02T18:58:25.143Z,97.60
2019-05-02T19:00:52.188Z,95.90
2019-05-02T19:03:19.051Z,94.70
2019-05-02T19:05:46.686Z,93.50
2019-05-02T19:08:13.732Z,92.30
2019-05-02T19:10:44.707Z,91.30
2019-05-02T19:13:09.315Z,91.10
2019-05-02T19:15:39.605Z,90.40
2019-05-02T19:18:05.204Z,90.30
2019-05-02T19:21:07.095Z,90.10
2019-05-02T19:23:34.791Z,89.80
2019-05-02T19:26:09.670Z,90.00
2019-05-02T19:28:42.913Z,89.90
2019-05-02T19:31:09.660Z,90.40
2019-05-02T19:33:37.382Z,90.70
2019-05-02T19:36:05.049Z,90.80
2019-05-02T19:38:32.338Z,90.60
2019-05-02T19:41:05.511Z,90.10
2019-05-02T19:43:28.987Z,90.00
2019-05-02T19:45:55.596Z,90.50
2019-05-02T19:48:22.668Z,90.10
2019-05-02T19:50:51.693Z,90.30
2019-05-02T19:53:19.639Z,90.30
2019-05-02T19:55:46.454Z,89.80
2019-05-02T19:58:13.349Z,90.00
2019-05-02T20:00:42.317Z,89.90
2019-05-02T20:03:08.587Z,90.00
2019-05-02T20:05:35.238Z,89.90
2019-05-02T20:08:02.564Z,90.10
2019-05-02T20:10:31.907Z,89.70
2019-05-02T20:12:58.211Z,89.10
2019-05-02T20:15:28.946Z,88.90
2019-05-02T20:18:00.573Z,88.30
2019-05-02T20:21:05.553Z,87.90
2019-05-02T20:23:35.606Z,86.70
2019-05-02T20:26:00.665Z,87.30
2019-05-02T20:28:27.517Z,88.70
2019-05-02T20:30:54.352Z,91.00
2019-05-02T20:33:22.228Z,92.50
2019-05-02T20:35:49.309Z,92.70
2019-05-02T20:38:16.216Z,96.40
2019-05-02T20:40:43.069Z,98.60
2019-05-02T20:43:11.996Z,99.90
2019-05-02T20:45:38.412Z,99.90
2019-05-02T20:48:05.209Z,99.90
2019-05-02T20:50:31.986Z,99.90
2019-05-02T20:52:58.662Z,99.90
2019-05-02T20:55:25.367Z,99.90
2019-05-02T20:57:52.739Z,99.90
2019-05-02T21:00:23.596Z,99.90
2019-05-02T21:02:51.915Z,99.90
2019-05-02T21:05:20.614Z,99.90
2019-05-02T21:08:01.880Z,99.90
2019-05-02T21:10:35.580Z,99.90
2019-05-02T21:13:02.490Z,99.90
2019-05-02T21:15:32.240Z,99.90
2019-05-02T21:17:58.790Z,99.90
2019-05-02T21:20:25.660Z,99.90
2019-05-02T21:22:52.973Z,99.90
2019-05-02T21:25:23.210Z,99.90
2019-05-02T21:27:52.230Z,99.90
2019-05-02T21:30:24.145Z,99.90
2019-05-02T21:32:52.043Z,99.90
2019-05-02T21:35:18.918Z,99.90
2019-05-02T21:37:45.600Z,99.90
2019-05-02T21:40:12.572Z,99.90
2019-05-02T21:42:39.279Z,99.90
2019-05-02T21:45:06.436Z,99.90
2019-05-02T21:47:33.519Z,99.90
2019-05-02T21:50:06.417Z,99.90
2019-05-02T21:52:46.560Z,99.90
2019-05-02T21:55:21.748Z,99.90
2019-05-02T21:57:48.559Z,99.90
2019-05-02T22:00:39.177Z,99.90
2019-05-02T22:03:06.996Z,99.90
2019-05-02T22:05:33.749Z,99.90
2019-05-02T22:08:00.492Z,99.90
2019-05-02T22:10:27.532Z,99.90
2019-05-02T22:12:54.154Z,99.90
2019-05-02T22:15:21.918Z,99.90
2019-05-02T22:17:48.736Z,99.90
2019-05-02T22:20:15.668Z,99.90
2019-05-02T22:22:42.705Z,99.90
2019-05-02T22:25:09.335Z,99.90
2019-05-02T22:27:36.033Z,99.90
2019-05-02T22:30:04.020Z,99.90
2019-05-02T22:32:32.133Z,99.90
2019-05-02T22:34:59.148Z,99.90
2019-05-02T22:37:25.977Z,99.90
2019-05-02T22:39:57.147Z,99.90
2019-05-02T22:42:23.985Z,99.90
2019-05-02T22:44:50.855Z,99.70
2019-05-02T22:47:17.608Z,99.90
2019-05-02T22:49:44.283Z,99.00
2019-05-02T22:52:12.199Z,99.60
2019-05-02T22:54:41.570Z,96.80
2019-05-02T22:57:08.548Z,97.10
2019-05-02T22:59:35.244Z,94.70
2019-05-02T23:02:02.255Z,94.20
2019-05-02T23:04:29.392Z,94.70
2019-05-02T23:06:56.470Z,94.90
2019-05-02T23:09:23.129Z,90.70
2019-05-02T23:11:51.702Z,89.20
2019-05-02T23:14:18.876Z,88.10
2019-05-02T23:16:45.734Z,87.80
2019-05-02T23:19:12.553Z,88.00
2019-05-02T23:21:39.635Z,86.00
2019-05-02T23:24:14.472Z,84.20
2019-05-02T23:26:53.495Z,82.00
2019-05-02T23:29:20.105Z,82.10
2019-05-02T23:31:46.712Z,83.10
2019-05-02T23:34:13.324Z,82.70
2019-05-02T23:36:41.624Z,84.80
2019-05-02T23:39:09.459Z,83.50
2019-05-02T23:41:36.677Z,83.50
2019-05-02T23:44:03.419Z,83.10
2019-05-02T23:46:30.097Z,81.50
2019-05-02T23:48:56.945Z,82.30
2019-05-02T23:51:23.740Z,83.00
2019-05-02T23:53:50.397Z,83.70
2019-05-02T23:56:17.051Z,83.10
2019-05-02T23:58:43.799Z,82.40
